sensor_id;sensor_type;location;lat;lon;timestamp;P1;durP1;ratioP1;P2;durP2;ratioP2
49123;SDS011;48506;48.202;16.274;2023-05-29T00:01:25;8.45;;;4.88;;
49123;SDS011;48506;48.202;16.274;2023-05-29T00:03:51;14.10;;;5.40;;
49123;SDS011;48506;48.202;16.274;2023-05-29T00:06:20;7.35;;;4.68;;
49123;SDS011;48506;48.202;16.274;2023-05-29T00:08:46;8.75;;;4.85;;
49123;SDS011;48506;48.202;16.274;2023-05-29T00:11:12;7.65;;;4.18;;
49123;SDS011;48506;48.202;16.274;2023-05-29T00:13:38;13.02;;;4.85;;
49123;SDS011;48506;48.202;16.274;2023-05-29T00:16:05;7.90;;;5.13;;
49123;SDS011;48506;48.202;16.274;2023-05-29T00:18:31;7.88;;;5.32;;
49123;SDS011;48506;48.202;16.274;2023-05-29T00:20:57;9.55;;;5.55;;
49123;SDS011;48506;48.202;16.274;2023-05-29T00:23:23;10.88;;;5.28;;
49123;SDS011;48506;48.202;16.274;2023-05-29T00:25:49;12.18;;;5.57;;
49123;SDS011;48506;48.202;16.274;2023-05-29T00:28:15;9.95;;;4.78;;
49123;SDS011;48506;48.202;16.274;2023-05-29T00:30:41;9.20;;;4.72;;
49123;SDS011;48506;48.202;16.274;2023-05-29T00:33:06;8.40;;;5.07;;
49123;SDS011;48506;48.202;16.274;2023-05-29T00:35:33;7.72;;;4.88;;
49123;SDS011;48506;48.202;16.274;2023-05-29T00:37:59;10.10;;;5.15;;
49123;SDS011;48506;48.202;16.274;2023-05-29T00:40:25;10.68;;;4.88;;
49123;SDS011;48506;48.202;16.274;2023-05-29T00:42:51;8.35;;;4.43;;
49123;SDS011;48506;48.202;16.274;2023-05-29T00:45:17;8.45;;;4.50;;
49123;SDS011;48506;48.202;16.274;2023-05-29T00:47:43;11.02;;;5.55;;
49123;SDS011;48506;48.202;16.274;2023-05-29T00:50:11;7.38;;;4.93;;
49123;SDS011;48506;48.202;16.274;2023-05-29T00:52:39;9.98;;;4.85;;
49123;SDS011;48506;48.202;16.274;2023-05-29T00:55:07;8.45;;;5.13;;
49123;SDS011;48506;48.202;16.274;2023-05-29T00:57:34;10.82;;;5.35;;
49123;SDS011;48506;48.202;16.274;2023-05-29T01:00:04;9.20;;;4.50;;
49123;SDS011;48506;48.202;16.274;2023-05-29T01:02:37;7.45;;;5.05;;
49123;SDS011;48506;48.202;16.274;2023-05-29T01:05:04;9.75;;;5.07;;
49123;SDS011;48506;48.202;16.274;2023-05-29T01:07:31;11.88;;;4.85;;
49123;SDS011;48506;48.202;16.274;2023-05-29T01:09:58;7.50;;;4.70;;
49123;SDS011;48506;48.202;16.274;2023-05-29T01:20:38;5.38;;;4.18;;
49123;SDS011;48506;48.202;16.274;2023-05-29T01:28:44;11.57;;;5.15;;
49123;SDS011;48506;48.202;16.274;2023-05-29T01:31:15;7.63;;;4.85;;
49123;SDS011;48506;48.202;16.274;2023-05-29T01:33:51;7.45;;;4.43;;
49123;SDS011;48506;48.202;16.274;2023-05-29T01:36:22;12.23;;;5.55;;
49123;SDS011;48506;48.202;16.274;2023-05-29T01:38:49;8.82;;;4.20;;
49123;SDS011;48506;48.202;16.274;2023-05-29T01:41:17;10.75;;;4.45;;
49123;SDS011;48506;48.202;16.274;2023-05-29T01:43:44;10.73;;;4.85;;
49123;SDS011;48506;48.202;16.274;2023-05-29T01:46:12;6.95;;;4.35;;
49123;SDS011;48506;48.202;16.274;2023-05-29T01:48:40;7.53;;;4.10;;
49123;SDS011;48506;48.202;16.274;2023-05-29T01:51:07;11.32;;;4.38;;
49123;SDS011;48506;48.202;16.274;2023-05-29T01:53:36;11.77;;;4.65;;
49123;SDS011;48506;48.202;16.274;2023-05-29T01:56:03;8.50;;;4.10;;
49123;SDS011;48506;48.202;16.274;2023-05-29T01:58:33;9.35;;;4.38;;
49123;SDS011;48506;48.202;16.274;2023-05-29T02:01:01;7.85;;;4.68;;
49123;SDS011;48506;48.202;16.274;2023-05-29T02:03:31;7.25;;;4.60;;
49123;SDS011;48506;48.202;16.274;2023-05-29T02:05:58;11.25;;;5.57;;
49123;SDS011;48506;48.202;16.274;2023-05-29T02:08:25;7.90;;;4.72;;
49123;SDS011;48506;48.202;16.274;2023-05-29T02:10:51;9.18;;;4.10;;
49123;SDS011;48506;48.202;16.274;2023-05-29T02:13:17;8.60;;;4.43;;
49123;SDS011;48506;48.202;16.274;2023-05-29T02:15:43;7.53;;;5.05;;
49123;SDS011;48506;48.202;16.274;2023-05-29T02:18:10;8.60;;;4.55;;
49123;SDS011;48506;48.202;16.274;2023-05-29T02:20:38;6.80;;;4.35;;
49123;SDS011;48506;48.202;16.274;2023-05-29T02:23:04;7.75;;;4.80;;
49123;SDS011;48506;48.202;16.274;2023-05-29T02:25:30;9.45;;;4.68;;
49123;SDS011;48506;48.202;16.274;2023-05-29T02:27:56;8.93;;;4.68;;
49123;SDS011;48506;48.202;16.274;2023-05-29T02:30:22;5.43;;;4.18;;
49123;SDS011;48506;48.202;16.274;2023-05-29T02:32:48;9.38;;;4.70;;
49123;SDS011;48506;48.202;16.274;2023-05-29T02:35:14;7.72;;;4.47;;
49123;SDS011;48506;48.202;16.274;2023-05-29T02:37:40;8.07;;;4.47;;
49123;SDS011;48506;48.202;16.274;2023-05-29T02:40:06;9.60;;;4.20;;
49123;SDS011;48506;48.202;16.274;2023-05-29T02:42:36;7.40;;;4.50;;
49123;SDS011;48506;48.202;16.274;2023-05-29T02:45:02;8.43;;;4.22;;
49123;SDS011;48506;48.202;16.274;2023-05-29T02:47:28;11.80;;;4.30;;
49123;SDS011;48506;48.202;16.274;2023-05-29T02:49:54;7.43;;;4.15;;
49123;SDS011;48506;48.202;16.274;2023-05-29T02:52:20;13.93;;;4.88;;
49123;SDS011;48506;48.202;16.274;2023-05-29T02:54:48;9.35;;;4.53;;
49123;SDS011;48506;48.202;16.274;2023-05-29T02:57:14;7.38;;;4.35;;
49123;SDS011;48506;48.202;16.274;2023-05-29T02:59:41;8.25;;;4.05;;
49123;SDS011;48506;48.202;16.274;2023-05-29T03:02:09;9.23;;;4.20;;
49123;SDS011;48506;48.202;16.274;2023-05-29T03:04:35;7.03;;;4.57;;
49123;SDS011;48506;48.202;16.274;2023-05-29T03:07:01;6.00;;;3.97;;
49123;SDS011;48506;48.202;16.274;2023-05-29T03:09:27;9.13;;;4.90;;
49123;SDS011;48506;48.202;16.274;2023-05-29T03:11:53;7.40;;;4.53;;
49123;SDS011;48506;48.202;16.274;2023-05-29T03:14:19;9.88;;;4.28;;
49123;SDS011;48506;48.202;16.274;2023-05-29T03:16:46;10.55;;;5.13;;
49123;SDS011;48506;48.202;16.274;2023-05-29T03:19:13;10.57;;;4.72;;
49123;SDS011;48506;48.202;16.274;2023-05-29T03:21:39;6.78;;;4.43;;
49123;SDS011;48506;48.202;16.274;2023-05-29T03:24:05;6.63;;;4.30;;
49123;SDS011;48506;48.202;16.274;2023-05-29T03:26:31;7.40;;;4.57;;
49123;SDS011;48506;48.202;16.274;2023-05-29T03:28:57;8.75;;;5.00;;
49123;SDS011;48506;48.202;16.274;2023-05-29T03:31:23;12.82;;;5.15;;
49123;SDS011;48506;48.202;16.274;2023-05-29T03:33:49;10.20;;;5.53;;
49123;SDS011;48506;48.202;16.274;2023-05-29T03:36:15;8.70;;;4.00;;
49123;SDS011;48506;48.202;16.274;2023-05-29T03:38:44;7.78;;;4.07;;
49123;SDS011;48506;48.202;16.274;2023-05-29T03:41:10;11.73;;;4.18;;
49123;SDS011;48506;48.202;16.274;2023-05-29T03:43:37;8.10;;;4.35;;
49123;SDS011;48506;48.202;16.274;2023-05-29T03:46:02;9.93;;;4.30;;
49123;SDS011;48506;48.202;16.274;2023-05-29T03:48:28;10.48;;;5.53;;
49123;SDS011;48506;48.202;16.274;2023-05-29T03:50:54;6.80;;;4.18;;
49123;SDS011;48506;48.202;16.274;2023-05-29T03:53:20;7.22;;;4.15;;
49123;SDS011;48506;48.202;16.274;2023-05-29T03:55:46;6.97;;;4.32;;
49123;SDS011;48506;48.202;16.274;2023-05-29T03:58:12;10.02;;;4.93;;
49123;SDS011;48506;48.202;16.274;2023-05-29T04:00:38;7.97;;;4.45;;
49123;SDS011;48506;48.202;16.274;2023-05-29T04:03:04;6.30;;;4.30;;
49123;SDS011;48506;48.202;16.274;2023-05-29T04:05:31;8.30;;;4.32;;
49123;SDS011;48506;48.202;16.274;2023-05-29T04:07:57;8.25;;;4.40;;
49123;SDS011;48506;48.202;16.274;2023-05-29T04:10:23;8.93;;;4.65;;
49123;SDS011;48506;48.202;16.274;2023-05-29T04:12:50;11.55;;;4.90;;
49123;SDS011;48506;48.202;16.274;2023-05-29T04:15:16;8.00;;;4.72;;
49123;SDS011;48506;48.202;16.274;2023-05-29T04:17:42;7.88;;;5.15;;
49123;SDS011;48506;48.202;16.274;2023-05-29T04:20:08;9.98;;;4.45;;
49123;SDS011;48506;48.202;16.274;2023-05-29T04:22:35;7.90;;;5.25;;
49123;SDS011;48506;48.202;16.274;2023-05-29T04:25:02;10.13;;;4.68;;
49123;SDS011;48506;48.202;16.274;2023-05-29T04:27:29;9.75;;;5.97;;
49123;SDS011;48506;48.202;16.274;2023-05-29T04:30:05;8.23;;;4.50;;
49123;SDS011;48506;48.202;16.274;2023-05-29T04:32:33;10.70;;;4.60;;
49123;SDS011;48506;48.202;16.274;2023-05-29T04:34:59;10.02;;;5.00;;
49123;SDS011;48506;48.202;16.274;2023-05-29T04:37:30;10.15;;;5.00;;
49123;SDS011;48506;48.202;16.274;2023-05-29T04:39:56;10.27;;;4.78;;
49123;SDS011;48506;48.202;16.274;2023-05-29T04:42:22;8.38;;;4.43;;
49123;SDS011;48506;48.202;16.274;2023-05-29T04:44:50;8.70;;;4.90;;
49123;SDS011;48506;48.202;16.274;2023-05-29T04:47:20;9.68;;;4.80;;
49123;SDS011;48506;48.202;16.274;2023-05-29T04:49:47;8.15;;;4.72;;
49123;SDS011;48506;48.202;16.274;2023-05-29T04:52:17;9.57;;;4.20;;
49123;SDS011;48506;48.202;16.274;2023-05-29T04:54:43;9.02;;;4.95;;
49123;SDS011;48506;48.202;16.274;2023-05-29T04:57:09;9.98;;;4.45;;
49123;SDS011;48506;48.202;16.274;2023-05-29T04:59:37;8.70;;;4.97;;
49123;SDS011;48506;48.202;16.274;2023-05-29T05:02:02;5.72;;;3.85;;
49123;SDS011;48506;48.202;16.274;2023-05-29T05:04:28;7.00;;;4.25;;
49123;SDS011;48506;48.202;16.274;2023-05-29T05:06:55;9.43;;;5.47;;
49123;SDS011;48506;48.202;16.274;2023-05-29T05:09:21;7.15;;;4.10;;
49123;SDS011;48506;48.202;16.274;2023-05-29T05:11:47;8.05;;;4.30;;
49123;SDS011;48506;48.202;16.274;2023-05-29T05:14:13;9.48;;;5.03;;
49123;SDS011;48506;48.202;16.274;2023-05-29T05:16:39;7.50;;;4.30;;
49123;SDS011;48506;48.202;16.274;2023-05-29T05:19:05;7.10;;;4.00;;
49123;SDS011;48506;48.202;16.274;2023-05-29T05:21:31;5.88;;;3.97;;
49123;SDS011;48506;48.202;16.274;2023-05-29T05:23:58;8.20;;;5.00;;
49123;SDS011;48506;48.202;16.274;2023-05-29T05:26:25;7.60;;;4.32;;
49123;SDS011;48506;48.202;16.274;2023-05-29T05:28:53;6.95;;;4.28;;
49123;SDS011;48506;48.202;16.274;2023-05-29T05:31:19;11.40;;;4.28;;
49123;SDS011;48506;48.202;16.274;2023-05-29T05:33:45;7.57;;;4.53;;
49123;SDS011;48506;48.202;16.274;2023-05-29T05:36:11;8.80;;;4.38;;
49123;SDS011;48506;48.202;16.274;2023-05-29T05:38:37;9.20;;;4.30;;
49123;SDS011;48506;48.202;16.274;2023-05-29T05:41:03;8.23;;;4.57;;
49123;SDS011;48506;48.202;16.274;2023-05-29T05:43:29;5.50;;;3.67;;
49123;SDS011;48506;48.202;16.274;2023-05-29T05:45:55;6.65;;;4.43;;
49123;SDS011;48506;48.202;16.274;2023-05-29T05:48:21;7.60;;;3.80;;
49123;SDS011;48506;48.202;16.274;2023-05-29T05:50:47;9.68;;;4.00;;
49123;SDS011;48506;48.202;16.274;2023-05-29T05:53:13;9.00;;;4.47;;
49123;SDS011;48506;48.202;16.274;2023-05-29T05:55:39;5.45;;;3.83;;
49123;SDS011;48506;48.202;16.274;2023-05-29T05:58:04;5.15;;;4.20;;
49123;SDS011;48506;48.202;16.274;2023-05-29T06:00:30;7.80;;;4.72;;
49123;SDS011;48506;48.202;16.274;2023-05-29T06:02:56;6.95;;;4.97;;
49123;SDS011;48506;48.202;16.274;2023-05-29T06:05:22;6.15;;;3.47;;
49123;SDS011;48506;48.202;16.274;2023-05-29T06:07:48;6.78;;;4.03;;
49123;SDS011;48506;48.202;16.274;2023-05-29T06:10:14;7.30;;;3.88;;
49123;SDS011;48506;48.202;16.274;2023-05-29T06:12:40;8.50;;;4.22;;
49123;SDS011;48506;48.202;16.274;2023-05-29T06:15:07;6.15;;;3.65;;
49123;SDS011;48506;48.202;16.274;2023-05-29T06:17:33;6.03;;;3.75;;
49123;SDS011;48506;48.202;16.274;2023-05-29T06:20:00;6.97;;;3.75;;
49123;SDS011;48506;48.202;16.274;2023-05-29T06:22:26;9.63;;;3.95;;
49123;SDS011;48506;48.202;16.274;2023-05-29T06:24:51;10.63;;;3.70;;
49123;SDS011;48506;48.202;16.274;2023-05-29T06:27:17;9.55;;;3.38;;
49123;SDS011;48506;48.202;16.274;2023-05-29T06:29:43;5.65;;;4.15;;
49123;SDS011;48506;48.202;16.274;2023-05-29T06:32:09;8.55;;;4.00;;
49123;SDS011;48506;48.202;16.274;2023-05-29T06:34:35;5.85;;;3.25;;
49123;SDS011;48506;48.202;16.274;2023-05-29T06:37:01;6.50;;;3.45;;
49123;SDS011;48506;48.202;16.274;2023-05-29T06:39:27;7.35;;;3.30;;
49123;SDS011;48506;48.202;16.274;2023-05-29T06:41:53;6.78;;;3.45;;
49123;SDS011;48506;48.202;16.274;2023-05-29T06:44:19;5.65;;;2.88;;
49123;SDS011;48506;48.202;16.274;2023-05-29T06:46:45;7.82;;;4.00;;
49123;SDS011;48506;48.202;16.274;2023-05-29T06:49:11;6.93;;;3.85;;
49123;SDS011;48506;48.202;16.274;2023-05-29T06:51:37;5.88;;;3.50;;
49123;SDS011;48506;48.202;16.274;2023-05-29T06:54:03;12.20;;;3.65;;
49123;SDS011;48506;48.202;16.274;2023-05-29T06:56:29;6.85;;;3.22;;
49123;SDS011;48506;48.202;16.274;2023-05-29T06:58:55;10.18;;;3.53;;
49123;SDS011;48506;48.202;16.274;2023-05-29T07:01:21;5.38;;;2.90;;
49123;SDS011;48506;48.202;16.274;2023-05-29T07:03:52;10.35;;;3.88;;
49123;SDS011;48506;48.202;16.274;2023-05-29T07:08:45;6.22;;;3.45;;
49123;SDS011;48506;48.202;16.274;2023-05-29T07:11:11;7.50;;;3.17;;
49123;SDS011;48506;48.202;16.274;2023-05-29T07:13:37;5.07;;;3.05;;
49123;SDS011;48506;48.202;16.274;2023-05-29T07:16:03;5.72;;;3.10;;
49123;SDS011;48506;48.202;16.274;2023-05-29T07:18:29;8.02;;;2.67;;
49123;SDS011;48506;48.202;16.274;2023-05-29T07:20:59;5.95;;;3.20;;
49123;SDS011;48506;48.202;16.274;2023-05-29T07:23:26;5.30;;;2.80;;
49123;SDS011;48506;48.202;16.274;2023-05-29T07:25:55;5.78;;;3.22;;
49123;SDS011;48506;48.202;16.274;2023-05-29T07:28:21;7.22;;;3.90;;
49123;SDS011;48506;48.202;16.274;2023-05-29T07:30:47;5.40;;;2.90;;
49123;SDS011;48506;48.202;16.274;2023-05-29T07:33:13;6.00;;;2.95;;
49123;SDS011;48506;48.202;16.274;2023-05-29T07:35:40;6.80;;;3.38;;
49123;SDS011;48506;48.202;16.274;2023-05-29T07:38:06;6.00;;;3.05;;
49123;SDS011;48506;48.202;16.274;2023-05-29T07:40:32;5.35;;;2.63;;
49123;SDS011;48506;48.202;16.274;2023-05-29T07:42:58;5.22;;;3.20;;
49123;SDS011;48506;48.202;16.274;2023-05-29T07:45:25;13.93;;;3.33;;
49123;SDS011;48506;48.202;16.274;2023-05-29T07:47:52;6.28;;;3.10;;
49123;SDS011;48506;48.202;16.274;2023-05-29T07:50:18;5.25;;;2.60;;
49123;SDS011;48506;48.202;16.274;2023-05-29T07:52:45;5.90;;;3.78;;
49123;SDS011;48506;48.202;16.274;2023-05-29T07:55:11;5.05;;;3.15;;
49123;SDS011;48506;48.202;16.274;2023-05-29T07:57:37;5.25;;;3.15;;
49123;SDS011;48506;48.202;16.274;2023-05-29T08:00:05;6.75;;;4.13;;
49123;SDS011;48506;48.202;16.274;2023-05-29T08:02:33;4.28;;;2.97;;
49123;SDS011;48506;48.202;16.274;2023-05-29T08:05:00;4.45;;;2.92;;
49123;SDS011;48506;48.202;16.274;2023-05-29T08:07:25;9.13;;;3.47;;
49123;SDS011;48506;48.202;16.274;2023-05-29T08:09:54;6.05;;;2.72;;
49123;SDS011;48506;48.202;16.274;2023-05-29T08:12:21;4.43;;;2.63;;
49123;SDS011;48506;48.202;16.274;2023-05-29T08:14:46;6.18;;;3.13;;
49123;SDS011;48506;48.202;16.274;2023-05-29T08:17:14;8.43;;;3.50;;
49123;SDS011;48506;48.202;16.274;2023-05-29T08:19:40;5.88;;;3.13;;
49123;SDS011;48506;48.202;16.274;2023-05-29T08:22:05;6.95;;;3.35;;
49123;SDS011;48506;48.202;16.274;2023-05-29T08:24:31;6.28;;;3.60;;
49123;SDS011;48506;48.202;16.274;2023-05-29T08:26:57;5.22;;;2.97;;
49123;SDS011;48506;48.202;16.274;2023-05-29T08:29:23;7.45;;;3.60;;
49123;SDS011;48506;48.202;16.274;2023-05-29T08:31:49;9.15;;;3.25;;
49123;SDS011;48506;48.202;16.274;2023-05-29T08:34:16;4.75;;;2.70;;
49123;SDS011;48506;48.202;16.274;2023-05-29T08:36:42;4.63;;;2.63;;
49123;SDS011;48506;48.202;16.274;2023-05-29T08:39:11;6.40;;;3.83;;
49123;SDS011;48506;48.202;16.274;2023-05-29T08:41:51;6.18;;;3.10;;
49123;SDS011;48506;48.202;16.274;2023-05-29T08:44:31;7.43;;;3.55;;
49123;SDS011;48506;48.202;16.274;2023-05-29T08:46:58;8.95;;;3.17;;
49123;SDS011;48506;48.202;16.274;2023-05-29T08:49:34;6.32;;;3.17;;
49123;SDS011;48506;48.202;16.274;2023-05-29T08:52:17;4.47;;;2.97;;
49123;SDS011;48506;48.202;16.274;2023-05-29T08:54:45;5.57;;;3.17;;
49123;SDS011;48506;48.202;16.274;2023-05-29T08:57:11;4.20;;;2.80;;
49123;SDS011;48506;48.202;16.274;2023-05-29T08:59:39;3.90;;;2.85;;
49123;SDS011;48506;48.202;16.274;2023-05-29T09:02:10;6.30;;;3.28;;
49123;SDS011;48506;48.202;16.274;2023-05-29T09:04:37;4.85;;;2.97;;
49123;SDS011;48506;48.202;16.274;2023-05-29T09:07:04;5.13;;;3.10;;
49123;SDS011;48506;48.202;16.274;2023-05-29T09:12:00;5.15;;;3.03;;
49123;SDS011;48506;48.202;16.274;2023-05-29T09:14:43;6.90;;;3.03;;
49123;SDS011;48506;48.202;16.274;2023-05-29T09:17:11;4.93;;;3.03;;
49123;SDS011;48506;48.202;16.274;2023-05-29T09:19:38;7.10;;;3.30;;
49123;SDS011;48506;48.202;16.274;2023-05-29T09:22:06;5.40;;;3.15;;
49123;SDS011;48506;48.202;16.274;2023-05-29T09:24:43;6.45;;;2.92;;
49123;SDS011;48506;48.202;16.274;2023-05-29T09:27:13;5.68;;;2.95;;
49123;SDS011;48506;48.202;16.274;2023-05-29T09:29:42;12.18;;;4.05;;
49123;SDS011;48506;48.202;16.274;2023-05-29T09:32:11;10.85;;;3.95;;
49123;SDS011;48506;48.202;16.274;2023-05-29T09:34:39;5.72;;;2.28;;
49123;SDS011;48506;48.202;16.274;2023-05-29T09:37:07;20.50;;;3.88;;
49123;SDS011;48506;48.202;16.274;2023-05-29T09:39:35;5.07;;;2.83;;
49123;SDS011;48506;48.202;16.274;2023-05-29T09:42:11;4.20;;;3.08;;
49123;SDS011;48506;48.202;16.274;2023-05-29T09:44:37;4.75;;;2.92;;
49123;SDS011;48506;48.202;16.274;2023-05-29T09:47:05;3.45;;;2.88;;
49123;SDS011;48506;48.202;16.274;2023-05-29T09:49:31;5.53;;;2.60;;
49123;SDS011;48506;48.202;16.274;2023-05-29T09:51:57;3.97;;;2.83;;
49123;SDS011;48506;48.202;16.274;2023-05-29T09:54:28;5.10;;;3.03;;
49123;SDS011;48506;48.202;16.274;2023-05-29T09:56:55;7.72;;;2.90;;
49123;SDS011;48506;48.202;16.274;2023-05-29T09:59:23;7.70;;;3.33;;
49123;SDS011;48506;48.202;16.274;2023-05-29T10:01:59;6.40;;;3.05;;
49123;SDS011;48506;48.202;16.274;2023-05-29T10:04:30;10.17;;;2.93;;
49123;SDS011;48506;48.202;16.274;2023-05-29T10:07:04;7.35;;;3.47;;
49123;SDS011;48506;48.202;16.274;2023-05-29T10:09:41;5.15;;;3.25;;
49123;SDS011;48506;48.202;16.274;2023-05-29T10:12:10;7.00;;;3.42;;
49123;SDS011;48506;48.202;16.274;2023-05-29T10:14:37;6.15;;;2.80;;
49123;SDS011;48506;48.202;16.274;2023-05-29T10:17:07;4.80;;;2.95;;
49123;SDS011;48506;48.202;16.274;2023-05-29T10:19:35;5.72;;;2.65;;
49123;SDS011;48506;48.202;16.274;2023-05-29T10:22:04;7.07;;;2.95;;
49123;SDS011;48506;48.202;16.274;2023-05-29T10:24:32;6.70;;;3.30;;
49123;SDS011;48506;48.202;16.274;2023-05-29T10:26:58;5.05;;;3.28;;
49123;SDS011;48506;48.202;16.274;2023-05-29T10:29:34;3.97;;;2.88;;
49123;SDS011;48506;48.202;16.274;2023-05-29T10:32:12;7.38;;;3.03;;
49123;SDS011;48506;48.202;16.274;2023-05-29T10:34:49;6.00;;;2.65;;
49123;SDS011;48506;48.202;16.274;2023-05-29T10:37:40;6.57;;;3.90;;
49123;SDS011;48506;48.202;16.274;2023-05-29T10:40:13;7.50;;;2.78;;
49123;SDS011;48506;48.202;16.274;2023-05-29T10:42:43;5.60;;;2.95;;
49123;SDS011;48506;48.202;16.274;2023-05-29T10:45:09;7.45;;;3.00;;
49123;SDS011;48506;48.202;16.274;2023-05-29T10:47:38;6.43;;;3.00;;
49123;SDS011;48506;48.202;16.274;2023-05-29T10:50:05;8.35;;;2.92;;
49123;SDS011;48506;48.202;16.274;2023-05-29T10:52:31;4.82;;;2.58;;
49123;SDS011;48506;48.202;16.274;2023-05-29T10:54:58;6.93;;;2.70;;
49123;SDS011;48506;48.202;16.274;2023-05-29T10:57:24;3.72;;;2.72;;
49123;SDS011;48506;48.202;16.274;2023-05-29T10:59:58;4.40;;;2.60;;
49123;SDS011;48506;48.202;16.274;2023-05-29T11:02:26;5.55;;;2.45;;
49123;SDS011;48506;48.202;16.274;2023-05-29T11:05:05;5.57;;;2.95;;
49123;SDS011;48506;48.202;16.274;2023-05-29T11:08:22;5.00;;;2.75;;
49123;SDS011;48506;48.202;16.274;2023-05-29T11:10:56;3.97;;;2.53;;
49123;SDS011;48506;48.202;16.274;2023-05-29T11:13:23;4.97;;;2.65;;
49123;SDS011;48506;48.202;16.274;2023-05-29T11:18:45;5.03;;;3.13;;
49123;SDS011;48506;48.202;16.274;2023-05-29T11:21:43;3.70;;;2.75;;
49123;SDS011;48506;48.202;16.274;2023-05-29T11:24:15;4.55;;;2.65;;
49123;SDS011;48506;48.202;16.274;2023-05-29T11:26:51;5.85;;;2.80;;
49123;SDS011;48506;48.202;16.274;2023-05-29T11:29:22;5.40;;;2.72;;
49123;SDS011;48506;48.202;16.274;2023-05-29T11:31:53;6.15;;;3.42;;
49123;SDS011;48506;48.202;16.274;2023-05-29T11:34:24;6.53;;;3.22;;
49123;SDS011;48506;48.202;16.274;2023-05-29T11:36:53;5.10;;;2.97;;
49123;SDS011;48506;48.202;16.274;2023-05-29T11:41:50;2.95;;;2.60;;
49123;SDS011;48506;48.202;16.274;2023-05-29T11:44:18;8.83;;;2.60;;
49123;SDS011;48506;48.202;16.274;2023-05-29T11:46:44;8.18;;;3.83;;
49123;SDS011;48506;48.202;16.274;2023-05-29T11:49:12;4.63;;;3.38;;
49123;SDS011;48506;48.202;16.274;2023-05-29T11:51:40;3.88;;;2.90;;
49123;SDS011;48506;48.202;16.274;2023-05-29T11:54:08;5.38;;;2.70;;
49123;SDS011;48506;48.202;16.274;2023-05-29T11:56:37;5.90;;;3.47;;
49123;SDS011;48506;48.202;16.274;2023-05-29T11:59:05;6.35;;;3.25;;
49123;SDS011;48506;48.202;16.274;2023-05-29T12:01:36;9.27;;;3.58;;
49123;SDS011;48506;48.202;16.274;2023-05-29T12:04:03;6.43;;;3.10;;
49123;SDS011;48506;48.202;16.274;2023-05-29T12:06:40;4.63;;;3.05;;
49123;SDS011;48506;48.202;16.274;2023-05-29T12:09:07;5.47;;;3.10;;
49123;SDS011;48506;48.202;16.274;2023-05-29T12:11:34;5.60;;;3.30;;
49123;SDS011;48506;48.202;16.274;2023-05-29T12:14:00;6.95;;;4.10;;
49123;SDS011;48506;48.202;16.274;2023-05-29T12:16:30;6.85;;;3.03;;
49123;SDS011;48506;48.202;16.274;2023-05-29T12:18:58;8.88;;;3.85;;
49123;SDS011;48506;48.202;16.274;2023-05-29T12:21:26;4.43;;;3.53;;
49123;SDS011;48506;48.202;16.274;2023-05-29T12:23:53;7.50;;;3.30;;
49123;SDS011;48506;48.202;16.274;2023-05-29T12:26:23;5.95;;;3.55;;
49123;SDS011;48506;48.202;16.274;2023-05-29T12:28:51;7.47;;;3.20;;
49123;SDS011;48506;48.202;16.274;2023-05-29T12:31:27;4.63;;;3.53;;
49123;SDS011;48506;48.202;16.274;2023-05-29T12:33:57;6.15;;;3.25;;
49123;SDS011;48506;48.202;16.274;2023-05-29T12:36:28;6.43;;;3.40;;
49123;SDS011;48506;48.202;16.274;2023-05-29T12:38:55;4.90;;;3.78;;
49123;SDS011;48506;48.202;16.274;2023-05-29T12:41:23;4.95;;;3.50;;
49123;SDS011;48506;48.202;16.274;2023-05-29T12:43:54;6.95;;;3.72;;
49123;SDS011;48506;48.202;16.274;2023-05-29T12:46:22;4.78;;;3.88;;
49123;SDS011;48506;48.202;16.274;2023-05-29T12:48:49;5.07;;;3.55;;
49123;SDS011;48506;48.202;16.274;2023-05-29T12:51:21;6.60;;;2.80;;
49123;SDS011;48506;48.202;16.274;2023-05-29T12:53:49;4.90;;;2.92;;
49123;SDS011;48506;48.202;16.274;2023-05-29T12:56:15;5.63;;;3.33;;
49123;SDS011;48506;48.202;16.274;2023-05-29T12:58:41;5.53;;;3.17;;
49123;SDS011;48506;48.202;16.274;2023-05-29T13:01:11;6.25;;;3.28;;
49123;SDS011;48506;48.202;16.274;2023-05-29T13:03:40;5.43;;;3.30;;
49123;SDS011;48506;48.202;16.274;2023-05-29T13:06:07;5.05;;;3.60;;
49123;SDS011;48506;48.202;16.274;2023-05-29T13:08:33;5.40;;;2.95;;
49123;SDS011;48506;48.202;16.274;2023-05-29T13:11:01;6.43;;;3.63;;
49123;SDS011;48506;48.202;16.274;2023-05-29T13:13:27;5.20;;;3.17;;
49123;SDS011;48506;48.202;16.274;2023-05-29T13:15:54;4.95;;;3.25;;
49123;SDS011;48506;48.202;16.274;2023-05-29T13:18:20;6.60;;;3.42;;
49123;SDS011;48506;48.202;16.274;2023-05-29T13:20:46;6.63;;;3.47;;
49123;SDS011;48506;48.202;16.274;2023-05-29T13:23:13;14.57;;;3.50;;
49123;SDS011;48506;48.202;16.274;2023-05-29T13:25:39;5.00;;;3.03;;
49123;SDS011;48506;48.202;16.274;2023-05-29T13:28:06;4.75;;;2.65;;
49123;SDS011;48506;48.202;16.274;2023-05-29T13:30:32;5.03;;;3.80;;
49123;SDS011;48506;48.202;16.274;2023-05-29T13:32:59;16.83;;;4.03;;
49123;SDS011;48506;48.202;16.274;2023-05-29T13:35:25;6.20;;;3.83;;
49123;SDS011;48506;48.202;16.274;2023-05-29T13:37:51;4.82;;;3.53;;
49123;SDS011;48506;48.202;16.274;2023-05-29T13:40:17;6.68;;;3.38;;
49123;SDS011;48506;48.202;16.274;2023-05-29T13:42:43;6.20;;;3.42;;
49123;SDS011;48506;48.202;16.274;2023-05-29T13:45:09;5.20;;;3.22;;
49123;SDS011;48506;48.202;16.274;2023-05-29T13:47:38;5.07;;;2.80;;
49123;SDS011;48506;48.202;16.274;2023-05-29T13:50:04;6.95;;;3.33;;
49123;SDS011;48506;48.202;16.274;2023-05-29T13:52:32;5.00;;;3.30;;
49123;SDS011;48506;48.202;16.274;2023-05-29T13:54:57;5.93;;;2.92;;
49123;SDS011;48506;48.202;16.274;2023-05-29T13:57:30;5.13;;;3.20;;
49123;SDS011;48506;48.202;16.274;2023-05-29T13:59:56;8.88;;;2.92;;
49123;SDS011;48506;48.202;16.274;2023-05-29T14:02:23;4.80;;;2.97;;
49123;SDS011;48506;48.202;16.274;2023-05-29T14:04:50;3.78;;;2.60;;
49123;SDS011;48506;48.202;16.274;2023-05-29T14:07:18;5.95;;;3.05;;
49123;SDS011;48506;48.202;16.274;2023-05-29T14:09:43;8.55;;;3.28;;
49123;SDS011;48506;48.202;16.274;2023-05-29T14:12:09;8.68;;;3.50;;
49123;SDS011;48506;48.202;16.274;2023-05-29T14:14:36;3.90;;;3.20;;
49123;SDS011;48506;48.202;16.274;2023-05-29T14:17:03;5.65;;;3.33;;
49123;SDS011;48506;48.202;16.274;2023-05-29T14:19:30;4.15;;;3.05;;
49123;SDS011;48506;48.202;16.274;2023-05-29T14:21:58;6.72;;;3.33;;
49123;SDS011;48506;48.202;16.274;2023-05-29T14:24:26;8.15;;;4.00;;
49123;SDS011;48506;48.202;16.274;2023-05-29T14:26:52;4.95;;;3.25;;
49123;SDS011;48506;48.202;16.274;2023-05-29T14:29:19;5.60;;;3.65;;
49123;SDS011;48506;48.202;16.274;2023-05-29T14:31:46;5.15;;;3.10;;
49123;SDS011;48506;48.202;16.274;2023-05-29T14:34:12;5.97;;;4.13;;
49123;SDS011;48506;48.202;16.274;2023-05-29T14:36:40;6.90;;;3.75;;
49123;SDS011;48506;48.202;16.274;2023-05-29T14:39:09;21.02;;;3.58;;
49123;SDS011;48506;48.202;16.274;2023-05-29T14:41:37;6.22;;;3.53;;
49123;SDS011;48506;48.202;16.274;2023-05-29T14:44:03;9.48;;;3.35;;
49123;SDS011;48506;48.202;16.274;2023-05-29T14:46:31;5.57;;;2.47;;
49123;SDS011;48506;48.202;16.274;2023-05-29T14:48:58;5.68;;;3.35;;
49123;SDS011;48506;48.202;16.274;2023-05-29T14:51:27;5.15;;;3.40;;
49123;SDS011;48506;48.202;16.274;2023-05-29T14:53:53;6.28;;;3.13;;
49123;SDS011;48506;48.202;16.274;2023-05-29T14:56:20;4.63;;;3.00;;
49123;SDS011;48506;48.202;16.274;2023-05-29T14:58:46;4.47;;;3.00;;
49123;SDS011;48506;48.202;16.274;2023-05-29T15:01:14;5.47;;;3.10;;